Weather at Boomers Field

Public forecast

Using degrees Fahrenheit for public forecast. Weather courtesy of forecast.io.

Closest aviation weather report (METAR) to Boomers Field

Closest report is Wallops Flight Facility Airport, 6.6 nm (12.2 km) ESE. Retrieved 2021/09/21 04:54 UTC (53 minutes ago):

KWAL 210454Z AUTO 09010KT 10SM OVC047 23/19 A3028 RMK AO2 SLP249 T02280194 402560150

Closest aviation forecast (TAF) to Boomers Field

Closest forecast is Salisbury Ocean City Wicomico Regional Airport, 20.7 nm (38.3 km) N. Retrieved 2021-09-21 00:33 UTC (5 hours ago):

TAF KSBY 202331Z 2100/2124 07003KT P6SM SCT250 FM211300 09006KT P6SM BKN250 FM211600 11008KT P6SM SCT045 BKN250